createdAt,value
2019-06-10T00:00:32.213Z,20.50
2019-06-10T00:05:38.439Z,20.20
2019-06-10T00:10:44.403Z,20.30
2019-06-10T00:15:51.554Z,20.10
2019-06-10T00:20:57.550Z,20.10
2019-06-10T00:26:05.890Z,20.30
2019-06-10T00:31:11.583Z,20.40
2019-06-10T00:36:17.687Z,20.40
2019-06-10T00:41:23.809Z,20.40
2019-06-10T00:46:31.697Z,20.40
2019-06-10T00:51:37.515Z,20.40
2019-06-10T00:56:43.571Z,20.30
2019-06-10T01:01:50.910Z,20.10
2019-06-10T01:06:57.041Z,20.00
2019-06-10T01:12:02.913Z,20.00
2019-06-10T01:17:11.855Z,19.70
2019-06-10T01:22:17.322Z,19.80
2019-06-10T01:27:24.081Z,19.80
2019-06-10T01:32:31.243Z,20.10
2019-06-10T01:37:37.294Z,20.00
2019-06-10T01:42:43.244Z,19.90
2019-06-10T01:47:51.095Z,19.80
2019-06-10T01:52:56.787Z,19.70
2019-06-10T01:58:02.833Z,19.90
2019-06-10T02:03:13.528Z,19.60
2019-06-10T02:08:21.914Z,19.50
2019-06-10T02:13:33.482Z,19.20
2019-06-10T02:18:42.223Z,18.80
2019-06-10T02:23:47.572Z,18.80
2019-06-10T02:28:53.445Z,18.90
2019-06-10T02:34:02.255Z,18.80
2019-06-10T02:39:09.695Z,18.70
2019-06-10T02:44:20.919Z,18.60
2019-06-10T02:49:46.924Z,18.60
2019-06-10T02:54:35.081Z,18.50
2019-06-10T02:59:38.918Z,18.30
2019-06-10T03:04:45.053Z,18.10
2019-06-10T03:09:53.816Z,17.70
2019-06-10T03:14:58.544Z,17.80
2019-06-10T03:20:04.701Z,17.90
2019-06-10T03:25:13.180Z,17.90
2019-06-10T03:30:28.956Z,18.00
2019-06-10T03:35:28.369Z,17.80
2019-06-10T03:40:34.489Z,17.60
2019-06-10T03:45:42.438Z,17.60
2019-06-10T03:50:48.114Z,17.60
2019-06-10T03:55:54.050Z,17.50
2019-06-10T04:01:02.788Z,17.10
2019-06-10T04:06:07.811Z,17.00
2019-06-10T04:11:14.213Z,17.00
2019-06-10T04:16:22.263Z,16.90
2019-06-10T04:21:28.404Z,16.90
2019-06-10T04:26:34.474Z,16.90
2019-06-10T04:31:42.300Z,17.20
2019-06-10T04:36:48.073Z,17.10
2019-06-10T04:41:54.037Z,17.30
2019-06-10T04:47:02.737Z,17.10
2019-06-10T04:52:08.382Z,17.20
2019-06-10T04:57:14.481Z,17.30
2019-06-10T05:02:23.775Z,17.20
2019-06-10T05:07:32.034Z,17.50
2019-06-10T05:12:35.726Z,17.50
2019-06-10T05:17:43.757Z,17.40
2019-06-10T05:22:49.313Z,17.60
2019-06-10T05:27:55.421Z,17.60
2019-06-10T05:33:02.996Z,17.80
2019-06-10T05:38:09.897Z,18.00
2019-06-10T05:43:15.814Z,18.40
2019-06-10T05:48:23.924Z,18.80
2019-06-10T05:53:31.522Z,19.20
2019-06-10T05:58:37.714Z,19.40
2019-06-10T06:03:44.120Z,19.50
2019-06-10T06:08:50.272Z,19.80
2019-06-10T06:13:56.180Z,20.00
2019-06-10T06:19:03.255Z,20.20
2019-06-10T06:24:09.604Z,20.60
2019-06-10T06:29:15.593Z,21.00
2019-06-10T06:34:22.458Z,21.10
2019-06-10T06:39:29.022Z,21.20
2019-06-10T06:44:37.478Z,21.10
2019-06-10T06:49:42.779Z,21.10
2019-06-10T06:54:48.650Z,21.20
2019-06-10T06:59:54.737Z,21.40
2019-06-10T07:05:03.164Z,21.60
2019-06-10T07:10:09.335Z,21.60
2019-06-10T07:15:15.306Z,21.70
2019-06-10T07:20:22.996Z,22.00
2019-06-10T07:25:28.905Z,22.40
2019-06-10T07:30:37.643Z,22.60
2019-06-10T07:35:44.121Z,22.80
2019-06-10T07:40:50.028Z,23.10
2019-06-10T07:45:55.996Z,23.20
2019-06-10T07:51:02.759Z,23.30
2019-06-10T07:56:09.177Z,23.40
2019-06-10T08:01:15.264Z,23.80
2019-06-10T08:06:22.834Z,24.00
2019-06-10T08:11:28.696Z,24.10
2019-06-10T08:16:35.688Z,24.20
2019-06-10T08:21:46.103Z,24.40
2019-06-10T08:26:49.483Z,24.50
2019-06-10T08:31:55.345Z,24.40
2019-06-10T08:37:04.348Z,23.80
2019-06-10T08:42:09.629Z,24.00
2019-06-10T08:47:15.704Z,24.40
2019-06-10T08:52:23.743Z,24.70
2019-06-10T08:57:29.356Z,25.10
2019-06-10T09:02:35.512Z,25.10
2019-06-10T09:07:45.856Z,25.20
2019-06-10T09:12:53.689Z,25.50
2019-06-10T09:17:57.075Z,25.50
2019-06-10T09:23:17.834Z,25.80
2019-06-10T09:28:12.716Z,25.80
2019-06-10T09:33:18.532Z,26.00
2019-06-10T09:38:24.592Z,26.00
2019-06-10T09:43:32.989Z,26.00
2019-06-10T09:48:38.291Z,26.20
2019-06-10T09:53:54.524Z,25.80
2019-06-10T09:58:55.098Z,26.10
2019-06-10T10:04:00.617Z,26.00
2019-06-10T10:09:08.325Z,26.50
2019-06-10T10:14:16.028Z,27.00
2019-06-10T10:19:23.176Z,26.90
2019-06-10T10:24:29.837Z,27.20
2019-06-10T10:29:35.967Z,26.90
2019-06-10T10:34:52.518Z,27.20
2019-06-10T10:39:58.428Z,27.70
2019-06-10T10:45:04.519Z,27.70
2019-06-10T10:50:13.966Z,27.70
2019-06-10T10:55:22.194Z,27.70
2019-06-10T11:00:37.189Z,27.90
2019-06-10T11:05:38.727Z,27.00
2019-06-10T11:10:47.841Z,27.40
2019-06-10T11:15:56.625Z,27.20
2019-06-10T11:21:04.925Z,26.70
2019-06-10T11:26:12.971Z,26.70
2019-06-10T11:31:18.364Z,26.80
2019-06-10T11:36:24.505Z,27.30
2019-06-10T11:41:32.456Z,27.60
2019-06-10T11:46:38.381Z,28.10
2019-06-10T11:51:44.267Z,28.00
2019-06-10T11:56:52.913Z,28.60
2019-06-10T12:02:00.413Z,28.60
2019-06-10T12:07:05.725Z,29.40
2019-06-10T12:12:12.943Z,28.10
2019-06-10T12:17:39.955Z,27.50
2019-06-10T12:22:26.956Z,27.50
2019-06-10T12:27:32.911Z,28.30
2019-06-10T12:32:38.813Z,28.30
2019-06-10T12:37:44.991Z,27.90
2019-06-10T12:42:53.075Z,28.50
2019-06-10T12:47:59.991Z,29.20
2019-06-10T12:53:07.258Z,28.90
2019-06-10T12:58:13.438Z,28.60
2019-06-10T13:03:19.822Z,29.30
2019-06-10T13:08:28.756Z,29.40
2019-06-10T13:13:34.712Z,29.70
2019-06-10T13:18:40.782Z,30.10
2019-06-10T13:23:46.680Z,30.10
2019-06-10T13:28:52.741Z,29.80
2019-06-10T13:34:03.334Z,28.80
2019-06-10T13:39:10.445Z,29.40
2019-06-10T13:44:16.811Z,29.50
2019-06-10T13:49:25.551Z,29.60
2019-06-10T13:54:31.231Z,29.40
2019-06-10T13:59:37.503Z,29.10
2019-06-10T14:04:43.631Z,28.90
2019-06-10T14:09:49.728Z,29.00
2019-06-10T14:14:55.673Z,29.00
2019-06-10T14:20:01.827Z,29.30
2019-06-10T14:25:09.791Z,30.80
2019-06-10T14:30:16.692Z,29.70
2019-06-10T14:35:22.713Z,29.30
2019-06-10T14:40:28.644Z,30.70
2019-06-10T14:45:34.550Z,31.80
2019-06-10T14:50:43.296Z,31.90
2019-06-10T14:55:48.270Z,31.20
2019-06-10T15:00:54.778Z,31.90
2019-06-10T15:06:03.033Z,31.80
2019-06-10T15:11:09.466Z,31.50
2019-06-10T15:16:16.467Z,31.80
2019-06-10T15:21:23.228Z,30.10
2019-06-10T15:26:29.326Z,30.70
2019-06-10T15:31:35.286Z,30.90
2019-06-10T15:36:43.255Z,32.30
2019-06-10T15:41:48.835Z,31.50
2019-06-10T15:46:54.833Z,31.30
2019-06-10T15:52:03.068Z,31.60
2019-06-10T15:57:22.717Z,31.30
2019-06-10T16:02:18.238Z,30.40
2019-06-10T16:07:25.568Z,29.90
2019-06-10T16:12:33.022Z,30.30
2019-06-10T16:17:39.224Z,29.90
2019-06-10T16:22:45.747Z,29.60
2019-06-10T16:27:54.328Z,29.60
2019-06-10T16:32:59.236Z,29.60
2019-06-10T16:38:05.255Z,30.40
2019-06-10T16:43:11.199Z,30.40
2019-06-10T16:48:17.527Z,30.30
2019-06-10T16:53:28.321Z,29.90
2019-06-10T16:58:33.202Z,30.10
2019-06-10T17:03:38.735Z,29.90
2019-06-10T17:08:44.661Z,29.90
2019-06-10T17:13:52.567Z,29.70
2019-06-10T17:18:58.195Z,27.50
2019-06-10T17:24:04.274Z,25.70
2019-06-10T17:29:10.238Z,25.30
2019-06-10T17:34:16.343Z,25.90
2019-06-10T17:39:24.720Z,25.90
2019-06-10T17:44:31.124Z,25.50
2019-06-10T17:49:37.721Z,25.60
2019-06-10T17:54:44.654Z,26.00
2019-06-10T17:59:52.447Z,26.10
2019-06-10T18:04:58.426Z,26.40
2019-06-10T18:10:05.116Z,25.80
2019-06-10T18:15:12.527Z,24.90
2019-06-10T18:20:18.626Z,24.40
2019-06-10T18:25:24.708Z,24.10
2019-06-10T18:30:35.564Z,23.90
2019-06-10T18:35:38.950Z,23.60
2019-06-10T18:40:44.820Z,23.00
2019-06-10T18:45:53.284Z,22.50
2019-06-10T18:50:58.654Z,22.30
2019-06-10T18:56:04.736Z,22.30
2019-06-10T19:01:13.385Z,22.10
2019-06-10T19:06:19.300Z,21.90
2019-06-10T19:11:34.081Z,21.90
2019-06-10T19:16:40.224Z,21.70
2019-06-10T19:22:01.506Z,21.40
2019-06-10T19:26:54.119Z,21.40
2019-06-10T19:32:00.303Z,21.40
2019-06-10T19:37:06.276Z,21.40
2019-06-10T19:42:13.016Z,21.40
2019-06-10T19:47:20.305Z,21.20
2019-06-10T19:52:26.178Z,21.20
2019-06-10T19:57:32.823Z,21.10
2019-06-10T20:02:42.115Z,21.00
2019-06-10T20:07:50.600Z,20.80
2019-06-10T20:12:55.464Z,20.70
2019-06-10T20:18:02.858Z,20.70
2019-06-10T20:23:09.298Z,20.60
2019-06-10T20:28:15.255Z,20.60
2019-06-10T20:33:38.427Z,20.50
2019-06-10T20:38:47.255Z,20.40
2019-06-10T20:43:55.077Z,20.40
2019-06-10T20:49:03.313Z,20.20
2019-06-10T20:54:09.759Z,20.20
2019-06-10T20:59:17.934Z,20.20
2019-06-10T21:04:25.667Z,20.20
2019-06-10T21:09:33.667Z,20.20
2019-06-10T21:14:42.723Z,20.20
2019-06-10T21:19:49.185Z,20.20
2019-06-10T21:24:55.278Z,20.20
2019-06-10T21:30:03.112Z,20.20
2019-06-10T21:35:09.356Z,20.10
2019-06-10T21:40:15.432Z,20.00
2019-06-10T21:45:22.887Z,20.00
2019-06-10T21:50:28.885Z,19.90
2019-06-10T21:55:34.833Z,19.80
2019-06-10T22:01:03.319Z,19.90
2019-06-10T22:05:56.277Z,19.80
2019-06-10T22:11:02.557Z,19.90
2019-06-10T22:16:08.764Z,19.90
2019-06-10T22:21:14.820Z,20.00
2019-06-10T22:26:22.461Z,20.00
2019-06-10T22:31:28.252Z,20.10
2019-06-10T22:36:34.146Z,20.10
2019-06-10T22:41:42.488Z,20.10
2019-06-10T22:46:48.059Z,20.10
2019-06-10T22:51:56.558Z,20.10
2019-06-10T22:57:02.844Z,20.10
2019-06-10T23:02:09.014Z,20.10
2019-06-10T23:07:15.013Z,20.00
2019-06-10T23:12:21.400Z,20.10
2019-06-10T23:17:27.313Z,20.10
2019-06-10T23:22:33.332Z,20.10
2019-06-10T23:27:43.754Z,20.20
2019-06-10T23:32:46.825Z,20.10
2019-06-10T23:37:55.128Z,20.10
2019-06-10T23:43:01.678Z,20.10
2019-06-10T23:48:07.904Z,20.10
2019-06-10T23:53:13.942Z,20.10
2019-06-10T23:58:21.993Z,20.10
